createdAt,value
2018-04-08T00:00:58.270Z,12.10
2018-04-08T00:03:25.784Z,12.20
2018-04-08T00:05:53.322Z,12.20
2018-04-08T00:08:20.875Z,12.20
2018-04-08T00:10:48.372Z,12.20
2018-04-08T00:13:16.723Z,12.10
2018-04-08T00:15:44.235Z,12.10
2018-04-08T00:18:11.765Z,12.10
2018-04-08T00:20:40.080Z,12.00
2018-04-08T00:23:07.666Z,12.00
2018-04-08T00:25:35.143Z,11.90
2018-04-08T00:28:02.676Z,11.80
2018-04-08T00:30:30.179Z,11.80
2018-04-08T00:32:58.479Z,11.80
2018-04-08T00:35:25.986Z,11.80
2018-04-08T00:37:53.503Z,11.80
2018-04-08T00:40:21.021Z,11.80
2018-04-08T00:42:48.533Z,11.80
2018-04-08T00:45:16.089Z,11.80
2018-04-08T00:47:43.593Z,11.80
2018-04-08T00:50:11.147Z,11.70
2018-04-08T00:52:38.682Z,11.70
2018-04-08T00:55:06.228Z,11.70
2018-04-08T00:57:33.796Z,11.70
2018-04-08T01:00:01.302Z,11.60
2018-04-08T01:02:29.604Z,11.50
2018-04-08T01:04:57.118Z,11.50
2018-04-08T01:07:24.653Z,11.50
2018-04-08T01:09:52.179Z,11.40
2018-04-08T01:12:19.715Z,11.30
2018-04-08T01:14:48.022Z,11.30
2018-04-08T01:17:15.581Z,11.30
2018-04-08T01:19:43.096Z,11.30
2018-04-08T01:22:10.633Z,11.30
2018-04-08T01:24:38.135Z,11.30
2018-04-08T01:27:05.658Z,11.20
2018-04-08T01:29:33.212Z,11.20
2018-04-08T01:32:00.714Z,11.20
2018-04-08T01:34:29.010Z,11.10
2018-04-08T01:36:56.550Z,11.10
2018-04-08T01:39:24.833Z,11.10
2018-04-08T01:41:53.134Z,11.10
2018-04-08T01:44:20.648Z,11.10
2018-04-08T01:46:48.955Z,11.00
2018-04-08T01:49:16.478Z,10.90
2018-04-08T01:51:44.808Z,10.90
2018-04-08T01:54:12.346Z,10.90
2018-04-08T01:56:39.902Z,10.90
2018-04-08T01:59:07.430Z,10.90
2018-04-08T02:01:34.942Z,10.80
2018-04-08T02:04:02.481Z,10.90
2018-04-08T02:06:30.032Z,10.80
2018-04-08T02:08:57.575Z,10.80
2018-04-08T02:11:25.871Z,10.70
2018-04-08T02:13:54.176Z,10.70
2018-04-08T02:16:21.685Z,10.70
2018-04-08T02:18:49.966Z,10.70
2018-04-08T02:21:18.287Z,10.70
2018-04-08T02:23:45.791Z,10.70
2018-04-08T02:26:14.072Z,10.60
2018-04-08T02:28:41.982Z,10.60
2018-04-08T02:31:09.537Z,10.60
2018-04-08T02:33:37.071Z,10.50
2018-04-08T02:36:05.339Z,10.40
2018-04-08T02:38:33.627Z,10.40
2018-04-08T02:41:01.166Z,10.40
2018-04-08T02:43:29.447Z,10.40
2018-04-08T02:45:57.758Z,10.40
2018-04-08T02:48:25.263Z,10.40
2018-04-08T02:50:52.789Z,10.40
2018-04-08T02:53:20.293Z,10.30
2018-04-08T02:55:47.832Z,10.30
2018-04-08T02:58:15.376Z,10.30
2018-04-08T03:00:42.845Z,10.20
2018-04-08T03:03:10.355Z,10.20
2018-04-08T03:05:37.863Z,10.20
2018-04-08T03:08:05.399Z,10.10
2018-04-08T03:10:32.919Z,10.10
2018-04-08T03:13:00.430Z,10.10
2018-04-08T03:15:27.946Z,10.00
2018-04-08T03:17:55.463Z,10.00
2018-04-08T03:20:23.015Z,9.90
2018-04-08T03:22:50.524Z,9.80
2018-04-08T03:25:18.054Z,9.80
2018-04-08T03:27:46.322Z,9.70
2018-04-08T03:30:13.843Z,9.60
2018-04-08T03:32:42.131Z,9.60
2018-04-08T03:35:09.650Z,9.60
2018-04-08T03:37:37.168Z,9.60
2018-04-08T03:40:04.688Z,9.50
2018-04-08T03:42:32.214Z,9.50
2018-04-08T03:44:59.728Z,9.50
2018-04-08T03:47:27.267Z,9.50
2018-04-08T03:49:54.783Z,9.50
2018-04-08T03:52:23.050Z,9.40
2018-04-08T03:54:51.359Z,9.40
2018-04-08T03:57:18.895Z,9.40
2018-04-08T03:59:47.177Z,9.30
2018-04-08T04:02:15.461Z,9.20
2018-04-08T04:04:42.983Z,9.20
2018-04-08T04:07:10.479Z,9.20
2018-04-08T04:09:38.031Z,9.20
2018-04-08T04:12:06.329Z,9.20
2018-04-08T04:14:33.878Z,9.20
2018-04-08T04:17:01.394Z,9.20
2018-04-08T04:19:40.650Z,9.10
2018-04-08T04:25:25.958Z,9.10
2018-04-08T04:27:54.243Z,9.10
2018-04-08T04:30:21.782Z,9.00
2018-04-08T04:32:50.101Z,9.00
2018-04-08T04:35:17.627Z,9.00
2018-04-08T04:37:45.953Z,9.00
2018-04-08T04:40:13.433Z,9.00
2018-04-08T04:42:40.963Z,9.00
2018-04-08T04:45:08.494Z,8.90
2018-04-08T04:47:36.025Z,8.90
2018-04-08T04:50:04.300Z,8.80
2018-04-08T04:52:31.815Z,8.80
2018-04-08T04:54:59.323Z,8.80
2018-04-08T04:57:27.619Z,8.80
2018-04-08T04:59:55.143Z,8.80
2018-04-08T05:02:22.670Z,8.80
2018-04-08T05:04:50.186Z,8.80
2018-04-08T05:07:18.502Z,8.80
2018-04-08T05:09:46.012Z,8.70
2018-04-08T05:12:14.308Z,8.80
2018-04-08T05:14:41.828Z,8.70
2018-04-08T05:17:09.323Z,8.70
2018-04-08T05:19:36.846Z,8.70
2018-04-08T05:22:04.358Z,8.70
2018-04-08T05:24:31.887Z,8.70
2018-04-08T05:27:00.170Z,8.80
2018-04-08T05:29:28.455Z,8.80
2018-04-08T05:31:55.998Z,8.70
2018-04-08T05:34:24.262Z,8.70
2018-04-08T05:36:52.567Z,8.80
2018-04-08T05:39:20.084Z,8.80
2018-04-08T05:41:47.594Z,8.90
2018-04-08T05:44:15.877Z,8.90
2018-04-08T05:46:43.537Z,8.90
2018-04-08T05:49:11.066Z,8.90
2018-04-08T05:51:39.336Z,9.00
2018-04-08T05:54:07.616Z,9.00
2018-04-08T05:56:35.885Z,9.10
2018-04-08T05:59:04.168Z,9.10
2018-04-08T06:01:32.490Z,9.20
2018-04-08T06:03:59.987Z,9.20
2018-04-08T06:06:27.523Z,9.30
2018-04-08T06:08:55.038Z,9.40
2018-04-08T06:11:22.541Z,9.40
2018-04-08T06:13:50.070Z,9.50
2018-04-08T06:16:17.602Z,9.40
2018-04-08T06:18:45.116Z,9.50
2018-04-08T06:21:12.618Z,9.60
2018-04-08T06:23:40.898Z,9.60
2018-04-08T06:26:08.391Z,9.50
2018-04-08T06:28:35.907Z,9.60
2018-04-08T06:31:04.178Z,9.80
2018-04-08T06:33:32.491Z,9.90
2018-04-08T06:36:00.798Z,9.90
2018-04-08T06:38:28.360Z,9.90
2018-04-08T06:40:55.865Z,9.90
2018-04-08T06:43:24.151Z,10.00
2018-04-08T06:45:51.663Z,10.00
2018-04-08T06:48:19.225Z,10.00
2018-04-08T06:50:46.727Z,10.10
2018-04-08T06:53:14.273Z,10.20
2018-04-08T06:55:42.575Z,10.30
2018-04-08T06:58:10.097Z,10.30
2018-04-08T07:00:38.414Z,10.50
2018-04-08T07:03:06.732Z,10.70
2018-04-08T07:05:34.255Z,10.60
2018-04-08T07:08:01.817Z,10.80
2018-04-08T07:10:29.370Z,11.00
2018-04-08T07:12:56.920Z,11.10
2018-04-08T07:15:24.509Z,11.20
2018-04-08T07:17:52.022Z,11.40
2018-04-08T07:20:19.538Z,11.50
2018-04-08T07:22:47.087Z,11.60
2018-04-08T07:25:14.636Z,11.70
2018-04-08T07:27:42.163Z,11.80
2018-04-08T07:30:09.714Z,12.10
2018-04-08T07:32:37.980Z,12.40
2018-04-08T07:35:06.304Z,12.50
2018-04-08T07:37:33.822Z,12.50
2018-04-08T07:40:02.111Z,12.70
2018-04-08T07:42:29.660Z,12.70
2018-04-08T07:44:57.937Z,13.00
2018-04-08T07:47:25.475Z,13.00
2018-04-08T07:49:52.993Z,13.20
2018-04-08T07:52:21.393Z,13.70
2018-04-08T07:54:48.903Z,13.60
2018-04-08T07:57:16.418Z,13.80
2018-04-08T07:59:43.955Z,14.10
2018-04-08T08:02:11.479Z,14.40
2018-04-08T08:04:39.030Z,14.60
2018-04-08T08:07:06.553Z,14.60
2018-04-08T08:09:34.067Z,14.70
2018-04-08T08:12:01.619Z,14.90
2018-04-08T08:14:29.156Z,15.20
2018-04-08T08:16:57.466Z,15.20
2018-04-08T08:19:25.053Z,15.20
2018-04-08T08:21:52.581Z,15.30
2018-04-08T08:24:20.098Z,15.50
2018-04-08T08:26:48.430Z,15.80
2018-04-08T08:29:15.977Z,15.80
2018-04-08T08:31:43.506Z,16.00
2018-04-08T08:34:11.828Z,16.20
2018-04-08T08:36:39.334Z,16.10
2018-04-08T08:39:07.613Z,16.00
2018-04-08T08:41:35.951Z,16.20
2018-04-08T08:44:03.467Z,16.20
2018-04-08T08:46:31.009Z,16.30
2018-04-08T08:48:59.307Z,16.40
2018-04-08T08:51:26.845Z,16.40
2018-04-08T08:53:55.116Z,16.50
2018-04-08T08:56:22.642Z,16.50
2018-04-08T08:58:50.187Z,16.70
2018-04-08T09:01:17.720Z,16.80
2018-04-08T09:03:45.274Z,17.00
2018-04-08T09:06:12.831Z,17.00
2018-04-08T09:08:40.357Z,16.90
2018-04-08T09:11:07.915Z,17.00
2018-04-08T09:13:35.460Z,17.10
2018-04-08T09:16:02.986Z,17.10
2018-04-08T09:18:30.545Z,16.90
2018-04-08T09:21:02.723Z,17.00
2018-04-08T09:23:49.176Z,17.40
2018-04-08T09:26:17.482Z,17.40
2018-04-08T09:28:45.043Z,17.40
2018-04-08T09:31:12.563Z,17.40
2018-04-08T09:33:40.096Z,17.60
2018-04-08T09:36:07.625Z,17.80
2018-04-08T09:38:35.143Z,17.80
2018-04-08T09:41:03.494Z,18.10
2018-04-08T09:43:31.006Z,18.00
2018-04-08T09:45:58.559Z,18.20
2018-04-08T09:48:26.962Z,18.50
2018-04-08T09:50:54.475Z,18.50
2018-04-08T09:53:21.978Z,18.40
2018-04-08T09:55:49.484Z,18.70
2018-04-08T09:58:18.585Z,18.90
2018-04-08T10:03:51.579Z,19.00
2018-04-08T10:06:19.097Z,19.10
2018-04-08T10:08:46.611Z,19.10
2018-04-08T10:11:14.123Z,19.20
2018-04-08T10:13:41.650Z,19.00
2018-04-08T10:16:09.249Z,19.00
2018-04-08T10:18:36.770Z,19.20
2018-04-08T10:21:05.081Z,19.90
2018-04-08T10:23:32.608Z,19.90
2018-04-08T10:26:00.123Z,20.20
2018-04-08T10:28:27.623Z,20.30
2018-04-08T10:30:55.958Z,20.60
2018-04-08T10:33:23.466Z,20.60
2018-04-08T10:35:51.015Z,20.80
2018-04-08T10:38:19.305Z,21.30
2018-04-08T10:40:46.856Z,21.30
2018-04-08T10:43:15.145Z,21.30
2018-04-08T10:45:43.142Z,21.30
2018-04-08T10:48:10.681Z,21.20
2018-04-08T10:50:38.226Z,21.40
2018-04-08T10:53:05.776Z,22.10
2018-04-08T10:55:34.053Z,22.30
2018-04-08T10:58:02.360Z,23.10
2018-04-08T11:00:29.898Z,23.00
2018-04-08T11:02:57.420Z,23.10
2018-04-08T11:05:24.981Z,23.70
2018-04-08T11:07:52.504Z,24.30
2018-04-08T11:10:20.030Z,24.90
2018-04-08T11:12:47.557Z,24.00
2018-04-08T11:15:15.060Z,24.40
2018-04-08T11:17:42.604Z,24.80
2018-04-08T11:20:10.142Z,25.00
2018-04-08T11:22:38.448Z,24.80
2018-04-08T11:25:05.959Z,24.80
2018-04-08T11:27:33.467Z,25.40
2018-04-08T11:30:01.066Z,25.40
2018-04-08T11:32:28.813Z,26.00
2018-04-08T11:34:56.359Z,26.30
2018-04-08T11:37:23.884Z,25.80
2018-04-08T11:39:52.237Z,26.30
2018-04-08T11:42:19.824Z,26.20
2018-04-08T11:44:48.128Z,26.60
2018-04-08T11:47:15.673Z,26.60
2018-04-08T11:49:44.081Z,27.30
2018-04-08T11:52:11.625Z,27.30
2018-04-08T11:54:39.136Z,27.20
2018-04-08T11:57:06.698Z,27.10
2018-04-08T11:59:34.224Z,27.40
2018-04-08T12:02:01.800Z,27.40
2018-04-08T12:04:29.295Z,26.40
2018-04-08T12:06:57.592Z,26.90
2018-04-08T12:09:25.134Z,26.80
2018-04-08T12:11:53.416Z,26.80
2018-04-08T12:14:20.935Z,26.80
2018-04-08T12:16:48.493Z,27.50
2018-04-08T12:19:16.036Z,27.20
2018-04-08T12:21:43.550Z,27.60
2018-04-08T12:24:14.135Z,27.60
2018-04-08T12:26:45.359Z,27.60
2018-04-08T12:29:12.918Z,28.20
2018-04-08T12:31:40.445Z,28.30
2018-04-08T12:34:08.713Z,28.00
2018-04-08T12:36:37.021Z,27.90
2018-04-08T12:39:04.539Z,27.90
2018-04-08T12:41:32.863Z,28.30
2018-04-08T12:44:00.390Z,28.30
2018-04-08T12:46:28.692Z,28.30
2018-04-08T12:48:56.221Z,28.30
2018-04-08T12:51:23.743Z,28.50
2018-04-08T12:53:51.306Z,28.30
2018-04-08T12:56:18.842Z,28.20
2018-04-08T12:58:46.331Z,28.50
2018-04-08T13:01:13.846Z,28.00
2018-04-08T13:03:41.372Z,27.80
2018-04-08T13:06:09.693Z,27.10
2018-04-08T13:08:37.237Z,27.10
2018-04-08T13:11:04.786Z,27.40
2018-04-08T13:13:32.322Z,27.70
2018-04-08T13:16:00.610Z,27.90
2018-04-08T13:18:28.922Z,28.20
2018-04-08T13:20:56.461Z,28.20
2018-04-08T13:23:23.992Z,28.70
2018-04-08T13:25:52.288Z,29.50
2018-04-08T13:28:19.786Z,29.40
2018-04-08T13:30:47.338Z,29.80
2018-04-08T13:33:14.891Z,29.10
2018-04-08T13:35:42.421Z,29.50
2018-04-08T13:38:09.950Z,29.60
2018-04-08T13:40:37.439Z,29.40
2018-04-08T13:43:04.963Z,29.00
2018-04-08T13:45:32.453Z,29.20
2018-04-08T13:48:00.771Z,29.90
2018-04-08T13:50:28.285Z,29.90
2018-04-08T13:52:56.564Z,29.00
2018-04-08T13:55:24.848Z,29.50
2018-04-08T13:57:52.364Z,29.40
2018-04-08T14:00:19.887Z,29.00
2018-04-08T14:02:47.399Z,29.50
2018-04-08T14:05:14.925Z,29.70
2018-04-08T14:07:42.439Z,30.10
2018-04-08T14:10:09.976Z,30.40
2018-04-08T14:12:38.283Z,30.40
2018-04-08T14:15:05.791Z,30.40
2018-04-08T14:17:33.314Z,30.10
2018-04-08T14:20:00.855Z,30.00
2018-04-08T14:22:28.395Z,29.60
2018-04-08T14:24:55.890Z,28.60
2018-04-08T14:27:23.411Z,28.70
2018-04-08T14:29:51.700Z,28.90
2018-04-08T14:32:19.223Z,28.90
2018-04-08T14:34:46.749Z,29.00
2018-04-08T14:37:14.271Z,29.10
2018-04-08T14:39:41.783Z,29.60
2018-04-08T14:42:09.322Z,29.40
2018-04-08T14:44:36.875Z,29.60
2018-04-08T14:47:04.449Z,29.50
2018-04-08T14:49:31.954Z,29.70
2018-04-08T14:51:59.497Z,29.70
2018-04-08T14:54:27.016Z,29.40
2018-04-08T14:56:54.580Z,29.10
2018-04-08T14:59:22.179Z,29.40
2018-04-08T15:01:49.709Z,29.00
2018-04-08T15:04:17.302Z,28.80
2018-04-08T15:06:45.621Z,28.60
2018-04-08T15:09:13.154Z,28.50
2018-04-08T15:11:41.506Z,28.30
2018-04-08T15:14:09.038Z,28.30
2018-04-08T15:16:36.528Z,27.70
2018-04-08T15:19:04.047Z,27.60
2018-04-08T15:21:31.555Z,27.50
2018-04-08T15:23:59.861Z,27.50
2018-04-08T15:26:27.363Z,27.40
2018-04-08T15:28:54.893Z,27.20
2018-04-08T15:31:22.425Z,27.40
2018-04-08T15:33:50.324Z,27.20
2018-04-08T15:36:17.827Z,27.10
2018-04-08T15:38:46.131Z,26.80
2018-04-08T15:41:13.690Z,26.70
2018-04-08T15:43:41.232Z,26.60
2018-04-08T15:46:09.508Z,26.10
2018-04-08T15:48:37.843Z,26.20
2018-04-08T15:51:05.396Z,26.20
2018-04-08T15:53:32.905Z,26.10
2018-04-08T15:56:01.225Z,26.10
2018-04-08T15:58:28.756Z,26.10
2018-04-08T16:00:56.291Z,26.00
2018-04-08T16:03:24.640Z,26.10
2018-04-08T16:05:52.156Z,26.10
2018-04-08T16:08:19.747Z,26.00
2018-04-08T16:10:47.249Z,26.10
2018-04-08T16:13:15.520Z,25.80
2018-04-08T16:15:43.796Z,25.90
2018-04-08T16:18:11.344Z,25.90
2018-04-08T16:20:38.874Z,25.80
2018-04-08T16:23:06.399Z,25.70
2018-04-08T16:25:33.977Z,25.60
2018-04-08T16:28:01.486Z,25.60
2018-04-08T16:30:29.014Z,25.50
2018-04-08T16:32:56.516Z,25.30
2018-04-08T16:35:24.827Z,25.30
2018-04-08T16:37:52.326Z,25.20
2018-04-08T16:40:19.827Z,25.30
2018-04-08T16:42:47.361Z,25.10
2018-04-08T16:45:15.643Z,25.00
2018-04-08T16:47:43.965Z,25.00
2018-04-08T16:50:11.476Z,25.00
2018-04-08T16:52:39.797Z,25.00
2018-04-08T16:55:07.325Z,24.90
2018-04-08T16:57:36.465Z,24.70
2018-04-08T17:00:04.808Z,24.70
2018-04-08T17:02:32.359Z,24.60
2018-04-08T17:05:00.900Z,24.60
2018-04-08T17:07:28.436Z,24.60
2018-04-08T17:09:55.991Z,24.60
2018-04-08T17:12:23.510Z,24.20
2018-04-08T17:14:51.864Z,24.10
2018-04-08T17:17:19.502Z,24.10
2018-04-08T17:19:47.827Z,24.00
2018-04-08T17:22:16.166Z,24.10
2018-04-08T17:24:43.706Z,24.10
2018-04-08T17:27:11.342Z,23.80
2018-04-08T17:29:38.853Z,23.80
2018-04-08T17:32:07.193Z,23.60
2018-04-08T17:34:34.708Z,23.60
2018-04-08T17:37:02.225Z,23.50
2018-04-08T17:39:29.880Z,23.40
2018-04-08T17:41:58.305Z,23.20
2018-04-08T17:44:26.600Z,23.00
2018-04-08T17:46:54.151Z,23.10
2018-04-08T17:49:22.435Z,22.80
2018-04-08T17:51:50.723Z,22.70
2018-04-08T17:54:18.392Z,22.70
2018-04-08T17:56:45.920Z,22.60
2018-04-08T17:59:13.479Z,22.50
2018-04-08T18:01:41.024Z,22.40
2018-04-08T18:04:08.627Z,22.30
2018-04-08T18:06:36.201Z,22.30
2018-04-08T18:09:03.704Z,22.20
2018-04-08T18:11:31.255Z,22.20
2018-04-08T18:13:59.153Z,22.00
2018-04-08T18:16:27.630Z,21.80
2018-04-08T18:18:55.215Z,21.80
2018-04-08T18:21:22.843Z,21.70
2018-04-08T18:23:51.144Z,21.50
2018-04-08T18:26:19.457Z,21.30
2018-04-08T18:28:47.002Z,21.30
2018-04-08T18:31:15.060Z,21.00
2018-04-08T18:33:43.056Z,20.90
2018-04-08T18:36:10.597Z,20.90
2018-04-08T18:38:38.111Z,20.90
2018-04-08T18:41:06.588Z,20.70
2018-04-08T18:43:34.438Z,20.70
2018-04-08T18:46:01.984Z,20.60
2018-04-08T18:48:29.585Z,20.50
2018-04-08T18:50:57.092Z,20.40
2018-04-08T18:53:25.135Z,20.40
2018-04-08T18:55:53.216Z,20.30
2018-04-08T18:58:20.752Z,20.20
2018-04-08T19:00:49.109Z,20.00
2018-04-08T19:03:16.784Z,19.90
2018-04-08T19:05:44.989Z,19.90
2018-04-08T19:12:48.244Z,19.80
2018-04-08T19:15:21.505Z,19.30
2018-04-08T19:17:54.620Z,19.30
2018-04-08T19:20:22.131Z,19.20
2018-04-08T19:22:50.905Z,19.00
2018-04-08T19:25:18.879Z,19.00
2018-04-08T19:27:47.174Z,18.90
2018-04-08T19:30:23.098Z,18.80
2018-04-08T19:32:50.713Z,18.80
2018-04-08T19:35:18.426Z,18.80
2018-04-08T19:37:46.026Z,18.70
2018-04-08T19:40:13.567Z,18.70
2018-04-08T19:42:42.207Z,18.60
2018-04-08T19:45:09.899Z,18.50
2018-04-08T19:47:38.694Z,18.60
2018-04-08T19:50:06.429Z,18.50
2018-04-08T19:52:34.730Z,18.60
2018-04-08T19:55:02.569Z,18.50
2018-04-08T19:57:30.328Z,18.50
2018-04-08T19:59:57.952Z,18.40
2018-04-08T20:02:25.596Z,18.40
2018-04-08T20:04:53.475Z,18.40
2018-04-08T20:07:21.565Z,18.30
2018-04-08T20:09:49.593Z,18.20
2018-04-08T20:12:18.170Z,18.00
2018-04-08T20:14:45.718Z,18.00
2018-04-08T20:17:13.218Z,18.00
2018-04-08T20:19:40.738Z,18.00
2018-04-08T20:22:08.279Z,18.00
2018-04-08T20:24:35.800Z,17.90
2018-04-08T20:27:03.310Z,17.80
2018-04-08T20:29:30.845Z,17.80
2018-04-08T20:31:58.670Z,17.60
2018-04-08T20:34:27.615Z,17.50
2018-04-08T20:36:56.130Z,17.50
2018-04-08T20:39:23.982Z,17.50
2018-04-08T20:41:52.093Z,17.50
2018-04-08T20:44:19.661Z,17.40
2018-04-08T20:46:47.571Z,17.40
2018-04-08T20:49:15.957Z,17.30
2018-04-08T20:51:43.562Z,17.30
2018-04-08T20:54:11.131Z,17.30
2018-04-08T20:56:39.314Z,17.30
2018-04-08T20:59:06.936Z,17.20
2018-04-08T21:01:35.791Z,17.10
2018-04-08T21:04:03.392Z,17.10
2018-04-08T21:06:31.668Z,17.00
2018-04-08T21:09:00.043Z,17.00
2018-04-08T21:11:28.449Z,16.90
2018-04-08T21:13:56.144Z,16.80
2018-04-08T21:16:23.702Z,16.90
2018-04-08T21:18:51.245Z,16.80
2018-04-08T21:21:19.041Z,16.80
2018-04-08T21:23:47.604Z,16.80
2018-04-08T21:26:16.604Z,16.70
2018-04-08T21:28:45.490Z,16.60
2018-04-08T21:31:13.818Z,16.50
2018-04-08T21:33:41.392Z,16.50
2018-04-08T21:36:08.892Z,16.50
2018-04-08T21:38:36.952Z,16.40
2018-04-08T21:41:04.717Z,16.30
2018-04-08T21:43:33.074Z,16.10
2018-04-08T21:46:00.702Z,16.10
2018-04-08T21:48:29.002Z,16.00
2018-04-08T21:50:57.366Z,15.90
2018-04-08T21:53:25.678Z,15.90
2018-04-08T21:55:53.202Z,15.90
2018-04-08T21:58:21.491Z,15.80
2018-04-08T22:00:49.060Z,15.80
2018-04-08T22:03:16.559Z,15.80
2018-04-08T22:05:44.097Z,15.70
2018-04-08T22:08:11.637Z,15.70
2018-04-08T22:10:39.144Z,15.60
2018-04-08T22:13:06.675Z,15.50
2018-04-08T22:15:34.183Z,15.50
2018-04-08T22:18:02.497Z,15.40
2018-04-08T22:20:30.051Z,15.40
2018-04-08T22:22:57.549Z,15.40
2018-04-08T22:25:25.042Z,15.30
2018-04-08T22:27:53.329Z,15.30
2018-04-08T22:30:21.617Z,15.20
2018-04-08T22:32:49.142Z,15.20
2018-04-08T22:35:17.487Z,15.20
2018-04-08T22:37:45.035Z,15.20
2018-04-08T22:40:12.544Z,15.10
2018-04-08T22:42:40.853Z,15.00
2018-04-08T22:45:08.371Z,14.90
2018-04-08T22:47:35.900Z,14.80
2018-04-08T22:50:03.483Z,14.80
2018-04-08T22:52:31.105Z,14.70
2018-04-08T22:54:58.654Z,14.60
2018-04-08T22:57:26.168Z,14.60
2018-04-08T22:59:54.472Z,14.50
2018-04-08T23:02:21.967Z,14.50
2018-04-08T23:04:49.486Z,14.50
2018-04-08T23:07:17.017Z,14.50
2018-04-08T23:09:44.533Z,14.40
2018-04-08T23:12:12.059Z,14.30
2018-04-08T23:14:40.329Z,14.20
2018-04-08T23:17:08.606Z,14.20
2018-04-08T23:19:36.899Z,14.10
2018-04-08T23:22:04.417Z,14.10
2018-04-08T23:24:32.691Z,14.00
2018-04-08T23:27:00.236Z,14.00
2018-04-08T23:29:27.780Z,14.00
2018-04-08T23:31:55.316Z,13.90
2018-04-08T23:34:22.839Z,13.80
2018-04-08T23:36:51.144Z,13.70
2018-04-08T23:39:18.643Z,13.70
2018-04-08T23:41:46.179Z,13.70
2018-04-08T23:44:13.715Z,13.70
2018-04-08T23:46:41.220Z,13.60
2018-04-08T23:49:08.750Z,13.60
2018-04-08T23:51:36.258Z,13.50
2018-04-08T23:54:03.759Z,13.50
2018-04-08T23:56:31.306Z,13.40
2018-04-08T23:58:58.857Z,13.30
